createdAt,value
2024-04-23T00:01:13.531Z,5.05
2024-04-23T00:03:40.491Z,7.88
2024-04-23T00:06:07.379Z,5.78
2024-04-23T00:08:34.446Z,8.43
2024-04-23T00:11:01.455Z,5.40
2024-04-23T00:13:28.479Z,5.40
2024-04-23T00:15:55.437Z,5.90
2024-04-23T00:18:22.394Z,11.07
2024-04-23T00:20:49.473Z,6.22
2024-04-23T00:23:16.375Z,6.20
2024-04-23T00:25:43.457Z,6.60
2024-04-23T00:28:10.466Z,11.70
2024-04-23T00:30:37.388Z,5.43
2024-04-23T00:33:07.684Z,7.60
2024-04-23T00:35:35.469Z,7.25
2024-04-23T00:38:02.579Z,7.38
2024-04-23T00:40:30.314Z,6.32
2024-04-23T00:42:57.932Z,8.25
2024-04-23T00:45:37.954Z,13.30
2024-04-23T00:48:05.159Z,13.60
2024-04-23T00:50:32.858Z,7.70
2024-04-23T00:53:00.070Z,11.45
2024-04-23T00:55:28.549Z,5.90
2024-04-23T00:57:55.832Z,9.68
2024-04-23T01:00:23.044Z,7.45
2024-04-23T01:02:51.167Z,7.45
2024-04-23T01:05:18.141Z,6.90
2024-04-23T01:07:45.112Z,8.70
2024-04-23T01:10:12.071Z,6.88
2024-04-23T01:12:38.993Z,7.70
2024-04-23T01:15:08.476Z,5.53
2024-04-23T01:17:40.085Z,5.75
2024-04-23T01:20:12.876Z,8.93
2024-04-23T01:23:17.483Z,8.25
2024-04-23T01:25:49.856Z,8.63
2024-04-23T01:28:18.071Z,6.70
2024-04-23T01:30:45.772Z,5.22
2024-04-23T01:33:13.716Z,6.10
2024-04-23T01:35:41.925Z,11.18
2024-04-23T01:38:10.970Z,8.73
2024-04-23T01:40:38.780Z,7.43
2024-04-23T01:43:06.122Z,9.55
2024-04-23T01:45:33.807Z,8.30
2024-04-23T01:48:01.099Z,7.90
2024-04-23T01:50:28.343Z,8.50
2024-04-23T01:52:55.365Z,6.60
2024-04-23T01:55:22.414Z,8.02
2024-04-23T01:57:49.422Z,7.30
2024-04-23T02:00:19.404Z,7.05
2024-04-23T02:02:48.290Z,8.50
2024-04-23T02:05:15.993Z,5.15
2024-04-23T02:07:43.735Z,6.22
2024-04-23T02:10:10.790Z,6.82
2024-04-23T02:12:39.863Z,4.88
2024-04-23T02:15:07.899Z,7.50
2024-04-23T02:17:36.182Z,7.20
2024-04-23T02:20:08.906Z,9.23
2024-04-23T02:22:35.930Z,6.05
2024-04-23T02:25:02.864Z,4.93
2024-04-23T02:27:29.900Z,5.97
2024-04-23T02:29:56.905Z,9.30
2024-04-23T02:32:24.013Z,6.53
2024-04-23T02:34:51.102Z,8.75
2024-04-23T02:37:18.071Z,5.20
2024-04-23T02:39:45.036Z,5.20
2024-04-23T02:42:12.005Z,5.00
2024-04-23T02:44:38.905Z,12.73
2024-04-23T02:47:05.820Z,8.70
2024-04-23T02:49:32.857Z,7.63
2024-04-23T02:52:00.794Z,5.75
2024-04-23T02:54:27.739Z,5.18
2024-04-23T02:56:54.776Z,4.97
2024-04-23T02:59:23.369Z,11.85
2024-04-23T03:01:50.464Z,6.13
2024-04-23T03:04:17.576Z,7.70
2024-04-23T03:06:45.548Z,6.90
2024-04-23T03:09:12.468Z,4.65
2024-04-23T03:11:39.407Z,5.57
2024-04-23T03:14:06.437Z,6.90
2024-04-23T03:16:33.548Z,7.38
2024-04-23T03:19:00.517Z,9.88
2024-04-23T03:21:27.435Z,8.50
2024-04-23T03:23:54.331Z,11.00
2024-04-23T03:26:21.610Z,15.38
2024-04-23T03:28:48.538Z,7.97
2024-04-23T03:31:15.469Z,7.35
2024-04-23T03:33:42.504Z,10.25
2024-04-23T03:36:09.602Z,5.60
2024-04-23T03:38:36.728Z,7.30
2024-04-23T03:41:03.816Z,5.55
2024-04-23T03:43:31.178Z,7.50
2024-04-23T03:45:58.115Z,8.88
2024-04-23T03:48:25.121Z,9.55
2024-04-23T03:50:52.063Z,8.40
2024-04-23T03:53:18.955Z,7.82
2024-04-23T03:55:45.886Z,6.60
2024-04-23T03:58:12.815Z,9.38
2024-04-23T04:00:39.735Z,5.78
2024-04-23T04:03:25.579Z,7.03
2024-04-23T04:06:11.457Z,7.55
2024-04-23T04:08:41.753Z,7.22
2024-04-23T04:11:09.012Z,6.53
2024-04-23T04:13:43.351Z,9.82
2024-04-23T04:16:10.602Z,6.70
2024-04-23T04:18:40.287Z,8.43
2024-04-23T04:21:07.509Z,8.07
2024-04-23T04:23:35.210Z,8.25
2024-04-23T04:26:02.245Z,8.90
2024-04-23T04:28:29.883Z,8.43
2024-04-23T04:30:57.155Z,5.30
2024-04-23T04:33:24.169Z,8.77
2024-04-23T04:35:51.053Z,5.45
2024-04-23T04:38:18.018Z,8.65
2024-04-23T04:40:44.943Z,7.88
2024-04-23T04:43:12.507Z,6.05
2024-04-23T04:45:39.451Z,7.18
2024-04-23T04:48:06.737Z,7.13
2024-04-23T04:50:33.765Z,13.07
2024-04-23T04:53:00.970Z,7.07
2024-04-23T04:55:31.950Z,9.68
2024-04-23T04:57:59.223Z,7.00
2024-04-23T05:00:26.179Z,6.07
2024-04-23T05:02:53.362Z,6.22
2024-04-23T05:05:20.308Z,8.07
2024-04-23T05:07:47.193Z,8.80
2024-04-23T05:10:17.228Z,7.15
2024-04-23T05:12:44.129Z,7.22
2024-04-23T05:15:13.137Z,9.02
2024-04-23T05:17:40.095Z,6.88
2024-04-23T05:20:09.701Z,6.55
2024-04-23T05:22:36.736Z,10.88
2024-04-23T05:25:05.816Z,9.32
2024-04-23T05:27:32.732Z,8.40
2024-04-23T05:29:59.681Z,8.15
2024-04-23T05:32:45.573Z,7.03
2024-04-23T05:35:14.454Z,11.05
2024-04-23T05:37:41.893Z,7.45
2024-04-23T05:40:09.076Z,10.70
2024-04-23T05:42:36.220Z,11.20
2024-04-23T05:45:03.469Z,12.55
2024-04-23T05:47:30.629Z,9.77
2024-04-23T05:50:35.066Z,11.40
2024-04-23T05:53:39.513Z,11.25
2024-04-23T05:56:06.568Z,10.80
2024-04-23T05:58:33.597Z,8.10
2024-04-23T06:01:01.178Z,10.60
2024-04-23T06:03:28.167Z,7.32
2024-04-23T06:05:55.101Z,12.93
2024-04-23T06:08:23.615Z,14.85
2024-04-23T06:10:50.671Z,11.13
2024-04-23T06:13:19.367Z,8.73
2024-04-23T06:15:46.351Z,12.30
2024-04-23T06:18:13.523Z,9.77
2024-04-23T06:20:40.836Z,10.95
2024-04-23T06:23:08.000Z,10.82
2024-04-23T06:25:36.003Z,14.57
2024-04-23T06:28:04.589Z,15.07
2024-04-23T06:30:32.594Z,12.18
2024-04-23T06:32:59.633Z,14.30
2024-04-23T06:35:27.618Z,21.50
2024-04-23T06:37:54.662Z,13.55
2024-04-23T06:40:21.580Z,14.15
2024-04-23T06:42:48.578Z,9.85
2024-04-23T06:45:15.540Z,13.98
2024-04-23T06:47:42.535Z,14.98
2024-04-23T06:50:09.791Z,10.30
2024-04-23T06:52:36.848Z,12.05
2024-04-23T06:55:03.973Z,15.88
2024-04-23T06:57:30.968Z,10.82
2024-04-23T06:59:57.871Z,9.20
2024-04-23T07:02:25.908Z,10.15
2024-04-23T07:04:53.252Z,11.45
2024-04-23T07:07:20.714Z,9.95
2024-04-23T07:09:47.750Z,11.43
2024-04-23T07:12:14.707Z,15.18
2024-04-23T07:14:41.648Z,9.73
2024-04-23T07:17:08.623Z,12.98
2024-04-23T07:19:35.706Z,9.75
2024-04-23T07:22:04.268Z,9.38
2024-04-23T07:24:31.374Z,8.63
2024-04-23T07:26:58.322Z,9.57
2024-04-23T07:29:28.891Z,10.80
2024-04-23T07:31:56.336Z,10.40
2024-04-23T07:34:24.640Z,9.93
2024-04-23T07:36:51.576Z,10.07
2024-04-23T07:39:19.149Z,8.23
2024-04-23T07:41:47.805Z,8.48
2024-04-23T07:44:14.942Z,13.15
2024-04-23T07:46:42.189Z,10.52
2024-04-23T07:49:10.543Z,8.82
2024-04-23T07:51:39.412Z,7.15
2024-04-23T07:54:06.491Z,6.45
2024-04-23T07:56:33.505Z,9.40
2024-04-23T07:59:03.568Z,7.32
2024-04-23T08:01:33.613Z,10.25
2024-04-23T08:04:02.797Z,6.57
2024-04-23T08:06:29.858Z,5.60
2024-04-23T08:08:56.805Z,4.85
2024-04-23T08:11:25.639Z,5.10
2024-04-23T08:13:52.696Z,6.38
2024-04-23T08:16:19.629Z,9.70
2024-04-23T08:18:46.665Z,6.25
2024-04-23T08:21:15.141Z,5.43
2024-04-23T08:23:42.192Z,5.85
2024-04-23T08:26:16.491Z,8.10
2024-04-23T08:28:45.657Z,9.27
2024-04-23T08:31:12.752Z,6.15
2024-04-23T08:33:39.914Z,8.50
2024-04-23T08:36:07.299Z,5.20
2024-04-23T08:38:34.389Z,5.25
2024-04-23T08:41:01.651Z,5.45
2024-04-23T08:43:34.615Z,6.22
2024-04-23T08:46:02.417Z,5.35
2024-04-23T08:48:33.711Z,7.72
2024-04-23T08:51:01.824Z,5.40
2024-04-23T08:53:29.746Z,4.65
2024-04-23T08:56:00.096Z,6.10
2024-04-23T08:58:28.442Z,4.50
2024-04-23T09:01:00.550Z,4.10
2024-04-23T09:03:45.799Z,5.07
2024-04-23T09:56:07.075Z,5.65
2024-04-23T09:58:35.214Z,5.75
2024-04-23T10:01:03.216Z,4.00
2024-04-23T10:03:31.172Z,7.00
2024-04-23T10:06:08.697Z,4.40
2024-04-23T10:08:49.033Z,13.18
2024-04-23T10:11:23.946Z,4.03
2024-04-23T10:14:03.733Z,2.55
2024-04-23T10:16:52.925Z,3.17
2024-04-23T10:19:22.869Z,3.20
2024-04-23T10:21:50.665Z,8.93
2024-04-23T10:24:21.764Z,5.18
2024-04-23T10:26:50.054Z,2.97
2024-04-23T10:29:17.385Z,5.10
2024-04-23T10:31:44.889Z,4.43
2024-04-23T10:34:17.231Z,3.80
2024-04-23T10:36:51.232Z,3.40
2024-04-23T10:39:23.435Z,3.53
2024-04-23T10:41:59.932Z,3.55
2024-04-23T10:44:27.494Z,3.97
2024-04-23T10:46:54.574Z,4.32
2024-04-23T10:49:26.557Z,2.13
2024-04-23T10:51:56.376Z,2.38
2024-04-23T10:57:04.099Z,2.92
2024-04-23T10:59:35.209Z,4.40
2024-04-23T11:02:07.306Z,5.00
2024-04-23T11:04:57.255Z,4.40
2024-04-23T11:07:28.930Z,2.70
2024-04-23T11:10:01.001Z,3.42
2024-04-23T11:12:31.006Z,2.28
2024-04-23T11:14:59.051Z,2.37
2024-04-23T11:17:29.326Z,2.45
2024-04-23T11:20:01.511Z,6.18
2024-04-23T11:23:08.045Z,2.25
2024-04-23T11:28:47.757Z,3.05
2024-04-23T11:31:15.288Z,2.13
2024-04-23T11:33:54.106Z,3.15
2024-04-23T11:39:40.327Z,3.40
2024-04-23T11:42:13.031Z,6.72
2024-04-23T11:44:40.268Z,2.65
2024-04-23T11:47:13.107Z,4.00
2024-04-23T11:49:40.618Z,3.40
2024-04-23T11:55:10.750Z,6.13
2024-04-23T11:57:41.122Z,3.22
2024-04-23T12:00:09.424Z,5.30
2024-04-23T12:02:36.488Z,4.10
2024-04-23T12:05:05.948Z,7.55
2024-04-23T12:07:35.336Z,15.82
2024-04-23T12:10:05.631Z,5.63
2024-04-23T12:12:37.752Z,2.90
2024-04-23T12:15:06.816Z,3.53
2024-04-23T12:17:34.597Z,3.30
2024-04-23T12:20:02.516Z,3.70
2024-04-23T12:22:33.345Z,3.78
2024-04-23T12:25:01.809Z,2.85
2024-04-23T12:27:28.912Z,3.67
2024-04-23T12:30:09.251Z,3.10
2024-04-23T12:32:36.517Z,3.03
2024-04-23T12:35:04.223Z,5.38
2024-04-23T12:37:42.160Z,7.93
2024-04-23T12:40:11.165Z,2.70
2024-04-23T12:42:54.897Z,2.33
2024-04-23T12:45:23.504Z,3.50
2024-04-23T12:47:50.564Z,2.88
2024-04-23T12:50:17.665Z,2.63
2024-04-23T12:52:45.151Z,3.50
2024-04-23T12:55:12.197Z,5.43
2024-04-23T12:57:39.897Z,4.35
2024-04-23T13:00:09.889Z,4.60
2024-04-23T13:05:12.525Z,3.53
2024-04-23T13:07:39.490Z,3.60
2024-04-23T13:10:06.930Z,5.85
2024-04-23T13:12:34.137Z,4.43
2024-04-23T13:15:01.505Z,5.57
2024-04-23T13:17:31.214Z,3.97
2024-04-23T13:20:01.376Z,3.20
2024-04-23T13:22:29.550Z,6.35
2024-04-23T13:24:56.711Z,3.45
2024-04-23T13:53:39.071Z,3.90
2024-04-23T13:56:07.778Z,3.47
2024-04-23T13:58:35.110Z,3.63
2024-04-23T14:01:09.808Z,9.13
2024-04-23T14:03:38.270Z,4.15
2024-04-23T14:06:09.140Z,3.53
2024-04-23T14:11:04.711Z,3.10
2024-04-23T14:13:34.592Z,3.10
2024-04-23T14:16:28.840Z,2.40
2024-04-23T14:18:58.239Z,2.35
2024-04-23T14:21:26.483Z,13.07
2024-04-23T14:23:53.478Z,2.47
2024-04-23T14:26:23.599Z,1.35
2024-04-23T14:28:54.245Z,1.20
2024-04-23T14:31:21.604Z,1.40
2024-04-23T14:33:48.598Z,2.00
2024-04-23T14:36:16.032Z,3.30
2024-04-23T14:38:43.219Z,4.22
2024-04-23T14:41:10.505Z,2.80
2024-04-23T14:43:37.692Z,3.90
2024-04-23T14:46:14.310Z,1.42
2024-04-23T14:48:44.206Z,1.38
2024-04-23T14:51:11.213Z,1.20
2024-04-23T14:53:38.503Z,3.55
2024-04-23T14:56:07.067Z,1.95
2024-04-23T14:58:35.864Z,4.47
2024-04-23T15:01:10.866Z,2.70
2024-04-23T15:03:38.002Z,3.75
2024-04-23T15:06:09.084Z,1.50
2024-04-23T15:08:40.043Z,1.55
2024-04-23T15:11:08.427Z,2.78
2024-04-23T15:13:36.818Z,3.15
2024-04-23T15:16:06.421Z,1.40
2024-04-23T15:18:36.273Z,1.63
2024-04-23T15:21:08.677Z,2.63
2024-04-23T15:23:36.116Z,9.10
2024-04-23T15:26:04.512Z,6.32
2024-04-23T15:28:33.710Z,2.10
2024-04-23T15:31:01.653Z,4.32
2024-04-23T15:33:35.487Z,5.78
2024-04-23T15:36:10.215Z,6.63
2024-04-23T15:38:41.772Z,6.50
2024-04-23T15:41:11.142Z,4.18
2024-04-23T15:43:38.150Z,3.42
2024-04-23T15:46:14.398Z,4.28
2024-04-23T15:48:42.098Z,4.60
2024-04-23T15:51:11.911Z,2.45
2024-04-23T15:53:39.100Z,4.97
2024-04-23T15:56:07.056Z,3.20
2024-04-23T15:58:35.699Z,4.65
2024-04-23T16:01:07.785Z,4.82
2024-04-23T16:03:44.069Z,6.18
2024-04-23T16:06:21.058Z,5.50
2024-04-23T16:08:50.671Z,4.95
2024-04-23T16:11:17.717Z,1.50
2024-04-23T16:13:44.910Z,2.85
2024-04-23T16:16:12.010Z,1.98
2024-04-23T16:18:39.022Z,4.15
2024-04-23T16:21:12.457Z,1.77
2024-04-23T16:23:39.901Z,3.88
2024-04-23T16:26:11.310Z,2.92
2024-04-23T16:28:38.690Z,4.13
2024-04-23T16:31:09.350Z,2.92
2024-04-23T16:33:37.742Z,2.88
2024-04-23T16:36:06.622Z,5.93
2024-04-23T16:38:39.626Z,21.98
2024-04-23T16:41:10.016Z,4.95
2024-04-23T16:43:38.564Z,2.60
2024-04-23T16:46:10.643Z,3.38
2024-04-23T16:48:40.665Z,2.67
2024-04-23T16:51:13.287Z,3.15
2024-04-23T16:53:41.507Z,3.25
2024-04-23T16:56:14.482Z,6.78
2024-04-23T16:58:41.699Z,3.05
2024-04-23T17:01:09.633Z,3.30
2024-04-23T17:03:37.183Z,4.65
2024-04-23T17:06:04.947Z,3.00
2024-04-23T17:08:34.245Z,3.80
2024-04-23T17:11:02.595Z,4.10
2024-04-23T17:13:29.982Z,4.28
2024-04-23T17:15:59.471Z,5.20
2024-04-23T17:18:27.033Z,4.80
2024-04-23T17:20:55.992Z,4.10
2024-04-23T17:23:23.027Z,5.80
2024-04-23T17:25:50.043Z,5.30
2024-04-23T17:28:17.054Z,4.95
2024-04-23T17:30:44.636Z,4.00
2024-04-23T17:33:12.552Z,7.03
2024-04-23T17:35:49.780Z,5.68
2024-04-23T17:38:18.393Z,5.15
2024-04-23T17:40:46.706Z,7.10
2024-04-23T17:43:20.926Z,7.03
2024-04-23T17:45:49.466Z,7.88
2024-04-23T17:48:18.473Z,4.25
2024-04-23T17:50:50.267Z,10.82
2024-04-23T17:53:17.646Z,7.15
2024-04-23T17:55:55.068Z,7.95
2024-04-23T17:58:28.936Z,11.05
2024-04-23T18:00:57.435Z,7.38
2024-04-23T18:03:27.643Z,8.40
2024-04-23T18:06:02.291Z,5.30
2024-04-23T18:08:33.325Z,9.00
2024-04-23T18:11:04.135Z,7.38
2024-04-23T18:13:33.126Z,8.23
2024-04-23T18:16:03.538Z,6.88
2024-04-23T18:18:30.582Z,5.68
2024-04-23T18:21:04.503Z,11.13
2024-04-23T18:23:39.356Z,7.78
2024-04-23T18:26:12.283Z,5.63
2024-04-23T18:28:49.565Z,7.32
2024-04-23T18:31:19.012Z,5.22
2024-04-23T18:33:49.713Z,6.88
2024-04-23T18:36:18.808Z,5.35
2024-04-23T18:38:46.722Z,4.28
2024-04-23T18:41:17.286Z,5.30
2024-04-23T18:43:49.382Z,5.13
2024-04-23T18:46:19.373Z,11.35
2024-04-23T18:48:50.050Z,6.07
2024-04-23T18:51:19.269Z,10.18
2024-04-23T18:53:46.346Z,7.47
2024-04-23T18:56:15.326Z,10.55
2024-04-23T18:58:43.464Z,9.40
2024-04-23T19:01:13.958Z,11.60
2024-04-23T19:03:42.834Z,9.68
2024-04-23T19:06:18.029Z,10.38
2024-04-23T19:08:48.427Z,13.82
2024-04-23T19:11:16.700Z,10.13
2024-04-23T19:13:45.707Z,14.02
2024-04-23T19:16:16.125Z,13.32
2024-04-23T19:18:46.481Z,14.63
2024-04-23T19:21:26.041Z,16.52
2024-04-23T19:23:53.912Z,11.10
2024-04-23T19:26:21.139Z,14.90
2024-04-23T19:28:48.950Z,13.05
2024-04-23T19:31:16.158Z,24.10
2024-04-23T19:33:43.500Z,24.17
2024-04-23T19:36:12.653Z,18.42
2024-04-23T19:38:40.871Z,12.38
2024-04-23T19:41:18.180Z,11.20
2024-04-23T19:43:52.603Z,18.30
2024-04-23T19:46:24.305Z,9.35
2024-04-23T19:48:52.088Z,18.38
2024-04-23T19:51:21.718Z,17.55
2024-04-23T19:53:50.563Z,19.45
2024-04-23T19:56:35.388Z,12.45
2024-04-23T19:59:05.853Z,13.35
2024-04-23T20:01:38.548Z,14.50
2024-04-23T20:04:05.997Z,13.68
2024-04-23T20:06:35.907Z,11.65
2024-04-23T20:09:08.891Z,9.68
2024-04-23T20:11:37.375Z,14.73
2024-04-23T20:14:04.713Z,11.88
2024-04-23T20:16:31.885Z,9.50
2024-04-23T20:18:58.907Z,14.82
2024-04-23T20:21:26.100Z,13.50
2024-04-23T20:23:54.361Z,12.40
2024-04-23T20:26:25.351Z,11.57
2024-04-23T20:28:53.953Z,15.13
2024-04-23T20:31:22.113Z,10.80
2024-04-23T20:33:50.022Z,10.43
2024-04-23T20:36:17.420Z,15.32
2024-04-23T20:38:44.364Z,16.88
2024-04-23T20:41:11.661Z,7.22
2024-04-23T20:43:38.716Z,6.53
2024-04-23T20:46:07.535Z,12.18
2024-04-23T20:48:35.726Z,8.18
2024-04-23T20:51:03.139Z,12.05
2024-04-23T20:53:30.127Z,6.72
2024-04-23T20:55:57.212Z,8.48
2024-04-23T20:58:24.474Z,7.68
2024-04-23T21:00:51.462Z,10.75
2024-04-23T21:03:18.657Z,13.50
2024-04-23T21:05:45.649Z,8.38
2024-04-23T21:08:13.016Z,7.78
2024-04-23T21:10:40.293Z,11.02
2024-04-23T21:13:07.290Z,6.43
2024-04-23T21:15:35.144Z,8.35
2024-04-23T21:18:02.559Z,7.30
2024-04-23T21:20:29.670Z,7.13
2024-04-23T21:22:56.714Z,4.55
2024-04-23T21:25:23.706Z,6.00
2024-04-23T21:27:50.751Z,8.40
2024-04-23T21:30:17.732Z,9.70
2024-04-23T21:32:44.852Z,3.00
2024-04-23T21:35:12.030Z,6.57
2024-04-23T21:37:39.173Z,8.18
2024-04-23T21:40:06.625Z,5.80
2024-04-23T21:42:40.947Z,4.30
2024-04-23T21:45:09.716Z,5.90
2024-04-23T21:47:37.131Z,6.53
2024-04-23T21:50:05.750Z,9.80
2024-04-23T21:52:41.380Z,7.05
2024-04-23T21:55:10.049Z,8.68
2024-04-23T21:57:37.294Z,7.00
2024-04-23T22:00:06.269Z,4.25
2024-04-23T22:02:36.962Z,9.70
2024-04-23T22:05:07.174Z,7.55
2024-04-23T22:07:34.368Z,12.43
2024-04-23T22:10:01.298Z,2.65
2024-04-23T22:12:28.229Z,9.43
2024-04-23T22:14:55.203Z,6.60
2024-04-23T22:17:23.341Z,4.15
2024-04-23T22:19:50.566Z,10.63
2024-04-23T22:22:17.607Z,5.80
2024-04-23T22:24:44.514Z,6.53
2024-04-23T22:27:11.453Z,8.10
2024-04-23T22:29:38.403Z,4.30
2024-04-23T22:32:06.984Z,2.90
2024-04-23T22:34:34.027Z,9.35
2024-04-23T22:37:00.949Z,7.25
2024-04-23T22:39:27.978Z,3.83
2024-04-23T22:41:54.935Z,4.65
2024-04-23T22:44:21.885Z,11.05
2024-04-23T22:46:48.935Z,6.53
2024-04-23T22:49:16.151Z,8.98
2024-04-23T22:51:48.371Z,6.43
2024-04-23T22:54:15.405Z,7.53
2024-04-23T22:56:42.486Z,6.35
2024-04-23T22:59:09.500Z,3.78
2024-04-23T23:01:36.509Z,6.28
2024-04-23T23:04:03.526Z,5.00
2024-04-23T23:06:33.443Z,4.00
2024-04-23T23:11:30.008Z,9.55
2024-04-23T23:13:57.003Z,3.92
2024-04-23T23:16:25.000Z,4.97
2024-04-23T23:18:52.082Z,6.30
2024-04-23T23:21:19.037Z,7.07
2024-04-23T23:23:46.035Z,6.28
2024-04-23T23:26:13.079Z,5.68
2024-04-23T23:28:40.003Z,6.07
2024-04-23T23:31:06.974Z,14.65
2024-04-23T23:33:34.053Z,2.53
2024-04-23T23:36:01.302Z,3.83
2024-04-23T23:38:28.273Z,3.38
2024-04-23T23:40:55.189Z,2.33
2024-04-23T23:43:22.208Z,3.95
2024-04-23T23:45:49.113Z,11.98
2024-04-23T23:48:16.235Z,4.80
2024-04-23T23:50:43.329Z,7.47
2024-04-23T23:53:10.288Z,4.65
2024-04-23T23:55:37.192Z,8.98
2024-04-23T23:58:04.717Z,4.25
